sensor_id;sensor_type;location;lat;lon;timestamp;temperature;humidity
44767;DHT22;30487;48.716;9.272;2023-08-01T00:01:53;18.80;99.90
44767;DHT22;30487;48.716;9.272;2023-08-01T00:04:19;18.80;99.90
44767;DHT22;30487;48.716;9.272;2023-08-01T00:06:44;18.80;99.90
44767;DHT22;30487;48.716;9.272;2023-08-01T00:09:10;18.90;99.90
44767;DHT22;30487;48.716;9.272;2023-08-01T00:11:35;18.90;99.90
44767;DHT22;30487;48.716;9.272;2023-08-01T00:14:01;18.80;99.90
44767;DHT22;30487;48.716;9.272;2023-08-01T00:16:27;18.80;99.90
44767;DHT22;30487;48.716;9.272;2023-08-01T00:18:52;18.90;99.90
44767;DHT22;30487;48.716;9.272;2023-08-01T00:21:18;18.90;99.90
44767;DHT22;30487;48.716;9.272;2023-08-01T00:23:43;18.90;99.90
44767;DHT22;30487;48.716;9.272;2023-08-01T00:26:09;18.80;99.90
44767;DHT22;30487;48.716;9.272;2023-08-01T00:28:34;18.80;99.90
44767;DHT22;30487;48.716;9.272;2023-08-01T00:31:06;18.90;99.90
44767;DHT22;30487;48.716;9.272;2023-08-01T00:33:34;18.90;99.90
44767;DHT22;30487;48.716;9.272;2023-08-01T00:36:00;18.80;99.90
44767;DHT22;30487;48.716;9.272;2023-08-01T00:38:26;18.80;99.90
44767;DHT22;30487;48.716;9.272;2023-08-01T00:40:52;18.80;99.90
44767;DHT22;30487;48.716;9.272;2023-08-01T00:43:18;18.90;99.90
44767;DHT22;30487;48.716;9.272;2023-08-01T00:45:44;18.90;99.90
44767;DHT22;30487;48.716;9.272;2023-08-01T00:48:10;18.80;99.90
44767;DHT22;30487;48.716;9.272;2023-08-01T00:50:35;18.80;99.90
44767;DHT22;30487;48.716;9.272;2023-08-01T00:53:01;18.80;99.90
44767;DHT22;30487;48.716;9.272;2023-08-01T00:55:29;18.80;99.90
44767;DHT22;30487;48.716;9.272;2023-08-01T00:57:55;18.90;99.90
44767;DHT22;30487;48.716;9.272;2023-08-01T01:00:21;18.90;99.90
44767;DHT22;30487;48.716;9.272;2023-08-01T01:02:46;18.90;99.90
44767;DHT22;30487;48.716;9.272;2023-08-01T01:05:12;18.80;99.90
44767;DHT22;30487;48.716;9.272;2023-08-01T01:07:39;18.90;99.90
44767;DHT22;30487;48.716;9.272;2023-08-01T01:10:05;18.90;99.90
44767;DHT22;30487;48.716;9.272;2023-08-01T01:12:30;18.90;99.90
44767;DHT22;30487;48.716;9.272;2023-08-01T01:14:56;18.80;99.90
44767;DHT22;30487;48.716;9.272;2023-08-01T01:17:21;18.80;99.90
44767;DHT22;30487;48.716;9.272;2023-08-01T01:19:47;18.80;99.90
44767;DHT22;30487;48.716;9.272;2023-08-01T01:22:13;18.80;99.90
44767;DHT22;30487;48.716;9.272;2023-08-01T01:24:41;18.80;99.90
44767;DHT22;30487;48.716;9.272;2023-08-01T01:27:09;18.70;99.90
44767;DHT22;30487;48.716;9.272;2023-08-01T01:29:35;18.70;99.90
44767;DHT22;30487;48.716;9.272;2023-08-01T01:32:03;18.70;99.90
44767;DHT22;30487;48.716;9.272;2023-08-01T01:34:29;18.70;99.90
44767;DHT22;30487;48.716;9.272;2023-08-01T01:36:55;18.60;99.90
44767;DHT22;30487;48.716;9.272;2023-08-01T01:39:20;18.60;99.90
44767;DHT22;30487;48.716;9.272;2023-08-01T01:41:46;18.60;99.90
44767;DHT22;30487;48.716;9.272;2023-08-01T01:44:12;18.60;99.90
44767;DHT22;30487;48.716;9.272;2023-08-01T01:46:37;18.60;99.90
44767;DHT22;30487;48.716;9.272;2023-08-01T01:49:03;18.60;99.90
44767;DHT22;30487;48.716;9.272;2023-08-01T01:51:31;18.60;99.90
44767;DHT22;30487;48.716;9.272;2023-08-01T01:53:57;18.60;99.90
44767;DHT22;30487;48.716;9.272;2023-08-01T01:56:22;18.50;99.90
44767;DHT22;30487;48.716;9.272;2023-08-01T01:58:48;18.40;99.90
44767;DHT22;30487;48.716;9.272;2023-08-01T02:01:14;18.40;99.90
44767;DHT22;30487;48.716;9.272;2023-08-01T02:03:39;18.40;99.90
44767;DHT22;30487;48.716;9.272;2023-08-01T02:06:05;18.30;99.90
44767;DHT22;30487;48.716;9.272;2023-08-01T02:08:31;18.30;99.90
44767;DHT22;30487;48.716;9.272;2023-08-01T02:10:56;18.30;99.90
44767;DHT22;30487;48.716;9.272;2023-08-01T02:13:27;18.20;99.90
44767;DHT22;30487;48.716;9.272;2023-08-01T02:15:53;18.30;99.90
44767;DHT22;30487;48.716;9.272;2023-08-01T02:18:19;18.30;99.90
44767;DHT22;30487;48.716;9.272;2023-08-01T02:20:44;18.30;99.90
44767;DHT22;30487;48.716;9.272;2023-08-01T02:23:10;18.20;99.90
44767;DHT22;30487;48.716;9.272;2023-08-01T02:25:39;18.30;99.90
44767;DHT22;30487;48.716;9.272;2023-08-01T02:28:05;18.30;99.90
44767;DHT22;30487;48.716;9.272;2023-08-01T02:30:31;18.30;99.90
44767;DHT22;30487;48.716;9.272;2023-08-01T02:32:56;18.30;99.90
44767;DHT22;30487;48.716;9.272;2023-08-01T02:35:22;18.30;99.90
44767;DHT22;30487;48.716;9.272;2023-08-01T02:37:48;18.30;99.90
44767;DHT22;30487;48.716;9.272;2023-08-01T02:40:13;18.40;99.90
44767;DHT22;30487;48.716;9.272;2023-08-01T02:42:39;18.40;99.90
44767;DHT22;30487;48.716;9.272;2023-08-01T02:45:05;18.40;99.90
44767;DHT22;30487;48.716;9.272;2023-08-01T02:47:30;18.40;99.90
44767;DHT22;30487;48.716;9.272;2023-08-01T02:49:56;18.40;99.90
44767;DHT22;30487;48.716;9.272;2023-08-01T02:52:21;18.40;99.90
44767;DHT22;30487;48.716;9.272;2023-08-01T02:54:47;18.40;99.90
44767;DHT22;30487;48.716;9.272;2023-08-01T02:57:12;18.40;99.90
44767;DHT22;30487;48.716;9.272;2023-08-01T02:59:38;18.50;99.90
44767;DHT22;30487;48.716;9.272;2023-08-01T03:02:03;18.40;99.90
44767;DHT22;30487;48.716;9.272;2023-08-01T03:04:29;18.40;99.90
44767;DHT22;30487;48.716;9.272;2023-08-01T03:06:55;18.40;99.90
44767;DHT22;30487;48.716;9.272;2023-08-01T03:09:20;18.40;99.90
44767;DHT22;30487;48.716;9.272;2023-08-01T03:11:46;18.40;99.90
44767;DHT22;30487;48.716;9.272;2023-08-01T03:14:11;18.50;99.90
44767;DHT22;30487;48.716;9.272;2023-08-01T03:16:37;18.40;99.90
44767;DHT22;30487;48.716;9.272;2023-08-01T03:19:02;18.40;99.90
44767;DHT22;30487;48.716;9.272;2023-08-01T03:21:33;18.40;99.90
44767;DHT22;30487;48.716;9.272;2023-08-01T03:23:59;18.50;99.90
44767;DHT22;30487;48.716;9.272;2023-08-01T03:26:25;18.40;99.90
44767;DHT22;30487;48.716;9.272;2023-08-01T03:28:53;18.50;99.90
44767;DHT22;30487;48.716;9.272;2023-08-01T03:31:19;18.50;99.90
44767;DHT22;30487;48.716;9.272;2023-08-01T03:33:45;18.50;99.90
44767;DHT22;30487;48.716;9.272;2023-08-01T03:36:10;18.50;99.90
44767;DHT22;30487;48.716;9.272;2023-08-01T03:38:36;18.50;99.90
44767;DHT22;30487;48.716;9.272;2023-08-01T03:41:02;18.50;99.90
44767;DHT22;30487;48.716;9.272;2023-08-01T03:43:29;18.50;99.90
44767;DHT22;30487;48.716;9.272;2023-08-01T03:45:55;18.50;99.90
44767;DHT22;30487;48.716;9.272;2023-08-01T03:48:20;18.60;99.90
44767;DHT22;30487;48.716;9.272;2023-08-01T03:50:46;18.60;99.90
44767;DHT22;30487;48.716;9.272;2023-08-01T03:53:11;18.60;99.90
44767;DHT22;30487;48.716;9.272;2023-08-01T03:55:37;18.60;99.90
44767;DHT22;30487;48.716;9.272;2023-08-01T03:58:03;18.60;99.90
44767;DHT22;30487;48.716;9.272;2023-08-01T04:00:28;18.70;99.90
44767;DHT22;30487;48.716;9.272;2023-08-01T04:02:58;18.70;99.90
44767;DHT22;30487;48.716;9.272;2023-08-01T04:05:24;18.80;99.90
44767;DHT22;30487;48.716;9.272;2023-08-01T04:07:49;18.70;99.90
44767;DHT22;30487;48.716;9.272;2023-08-01T04:10:15;18.80;99.90
44767;DHT22;30487;48.716;9.272;2023-08-01T04:12:41;18.80;99.90
44767;DHT22;30487;48.716;9.272;2023-08-01T04:15:08;18.80;99.90
44767;DHT22;30487;48.716;9.272;2023-08-01T04:17:34;18.80;99.90
44767;DHT22;30487;48.716;9.272;2023-08-01T04:19:59;18.80;99.90
44767;DHT22;30487;48.716;9.272;2023-08-01T04:22:25;18.80;99.90
44767;DHT22;30487;48.716;9.272;2023-08-01T04:24:51;18.80;99.90
44767;DHT22;30487;48.716;9.272;2023-08-01T04:27:16;18.80;99.90
44767;DHT22;30487;48.716;9.272;2023-08-01T04:29:42;18.80;99.90
44767;DHT22;30487;48.716;9.272;2023-08-01T04:32:08;18.80;99.90
44767;DHT22;30487;48.716;9.272;2023-08-01T04:34:33;18.80;99.90
44767;DHT22;30487;48.716;9.272;2023-08-01T04:36:59;18.70;99.90
44767;DHT22;30487;48.716;9.272;2023-08-01T04:39:24;18.80;99.90
44767;DHT22;30487;48.716;9.272;2023-08-01T04:41:50;18.80;99.90
44767;DHT22;30487;48.716;9.272;2023-08-01T04:44:15;18.80;99.90
44767;DHT22;30487;48.716;9.272;2023-08-01T04:46:41;18.90;99.90
44767;DHT22;30487;48.716;9.272;2023-08-01T04:49:07;18.90;99.90
44767;DHT22;30487;48.716;9.272;2023-08-01T04:51:33;18.90;99.90
44767;DHT22;30487;48.716;9.272;2023-08-01T04:53:58;18.90;99.90
44767;DHT22;30487;48.716;9.272;2023-08-01T04:56:24;18.90;99.90
44767;DHT22;30487;48.716;9.272;2023-08-01T04:58:49;18.90;99.90
44767;DHT22;30487;48.716;9.272;2023-08-01T05:01:15;18.90;99.90
44767;DHT22;30487;48.716;9.272;2023-08-01T05:03:41;18.90;99.90
44767;DHT22;30487;48.716;9.272;2023-08-01T05:06:06;18.90;99.90
44767;DHT22;30487;48.716;9.272;2023-08-01T05:08:32;18.90;99.90
44767;DHT22;30487;48.716;9.272;2023-08-01T05:10:58;18.90;99.90
44767;DHT22;30487;48.716;9.272;2023-08-01T05:13:23;18.90;99.90
44767;DHT22;30487;48.716;9.272;2023-08-01T05:15:49;18.90;99.90
44767;DHT22;30487;48.716;9.272;2023-08-01T05:18:16;18.90;99.90
44767;DHT22;30487;48.716;9.272;2023-08-01T05:20:42;19.00;99.90
44767;DHT22;30487;48.716;9.272;2023-08-01T05:23:08;19.00;99.90
44767;DHT22;30487;48.716;9.272;2023-08-01T05:25:34;19.00;99.90
44767;DHT22;30487;48.716;9.272;2023-08-01T05:27:59;19.00;99.90
44767;DHT22;30487;48.716;9.272;2023-08-01T05:30:25;19.00;99.90
44767;DHT22;30487;48.716;9.272;2023-08-01T05:32:50;19.00;99.90
44767;DHT22;30487;48.716;9.272;2023-08-01T05:35:17;19.00;99.90
44767;DHT22;30487;48.716;9.272;2023-08-01T05:37:42;19.00;99.90
44767;DHT22;30487;48.716;9.272;2023-08-01T05:40:09;19.00;99.90
44767;DHT22;30487;48.716;9.272;2023-08-01T05:42:34;19.10;99.90
44767;DHT22;30487;48.716;9.272;2023-08-01T05:45:00;19.10;99.90
44767;DHT22;30487;48.716;9.272;2023-08-01T05:47:26;19.10;99.90
44767;DHT22;30487;48.716;9.272;2023-08-01T05:49:51;19.10;99.90
44767;DHT22;30487;48.716;9.272;2023-08-01T05:52:17;19.10;99.90
44767;DHT22;30487;48.716;9.272;2023-08-01T05:54:43;19.10;99.90
44767;DHT22;30487;48.716;9.272;2023-08-01T05:57:08;19.10;99.90
44767;DHT22;30487;48.716;9.272;2023-08-01T05:59:34;19.20;99.90
44767;DHT22;30487;48.716;9.272;2023-08-01T06:01:59;19.20;99.90
44767;DHT22;30487;48.716;9.272;2023-08-01T06:04:25;19.20;99.90
44767;DHT22;30487;48.716;9.272;2023-08-01T06:06:51;19.30;99.90
44767;DHT22;30487;48.716;9.272;2023-08-01T06:09:16;19.30;99.90
44767;DHT22;30487;48.716;9.272;2023-08-01T06:11:42;19.30;99.90
44767;DHT22;30487;48.716;9.272;2023-08-01T06:14:09;19.30;99.90
44767;DHT22;30487;48.716;9.272;2023-08-01T06:16:35;19.30;99.90
44767;DHT22;30487;48.716;9.272;2023-08-01T06:19:00;19.30;99.90
44767;DHT22;30487;48.716;9.272;2023-08-01T06:21:26;19.30;99.90
44767;DHT22;30487;48.716;9.272;2023-08-01T06:23:51;19.30;99.90
44767;DHT22;30487;48.716;9.272;2023-08-01T06:26:17;19.30;99.90
44767;DHT22;30487;48.716;9.272;2023-08-01T06:28:42;19.30;99.90
44767;DHT22;30487;48.716;9.272;2023-08-01T06:31:08;19.20;99.90
44767;DHT22;30487;48.716;9.272;2023-08-01T06:33:34;19.30;99.90
44767;DHT22;30487;48.716;9.272;2023-08-01T06:35:59;19.30;99.90
44767;DHT22;30487;48.716;9.272;2023-08-01T06:38:25;19.30;99.90
44767;DHT22;30487;48.716;9.272;2023-08-01T06:40:50;19.30;99.90
44767;DHT22;30487;48.716;9.272;2023-08-01T06:43:16;19.30;99.90
44767;DHT22;30487;48.716;9.272;2023-08-01T06:45:41;19.20;99.90
44767;DHT22;30487;48.716;9.272;2023-08-01T06:48:07;19.30;99.90
44767;DHT22;30487;48.716;9.272;2023-08-01T06:50:33;19.20;99.90
44767;DHT22;30487;48.716;9.272;2023-08-01T06:52:59;19.20;99.90
44767;DHT22;30487;48.716;9.272;2023-08-01T06:55:26;19.20;99.90
44767;DHT22;30487;48.716;9.272;2023-08-01T06:57:52;19.10;99.90
44767;DHT22;30487;48.716;9.272;2023-08-01T07:00:17;19.10;99.90
44767;DHT22;30487;48.716;9.272;2023-08-01T07:02:43;19.10;99.90
44767;DHT22;30487;48.716;9.272;2023-08-01T07:05:08;19.10;99.90
44767;DHT22;30487;48.716;9.272;2023-08-01T07:07:34;19.00;99.90
44767;DHT22;30487;48.716;9.272;2023-08-01T07:10:00;19.00;99.90
44767;DHT22;30487;48.716;9.272;2023-08-01T07:12:25;19.00;99.90
44767;DHT22;30487;48.716;9.272;2023-08-01T07:14:51;19.00;99.90
44767;DHT22;30487;48.716;9.272;2023-08-01T07:17:17;18.90;99.90
44767;DHT22;30487;48.716;9.272;2023-08-01T07:19:42;18.90;99.90
44767;DHT22;30487;48.716;9.272;2023-08-01T07:22:08;19.00;99.90
44767;DHT22;30487;48.716;9.272;2023-08-01T07:24:33;19.00;99.90
44767;DHT22;30487;48.716;9.272;2023-08-01T07:26:59;19.00;99.90
44767;DHT22;30487;48.716;9.272;2023-08-01T07:29:24;18.90;99.90
44767;DHT22;30487;48.716;9.272;2023-08-01T07:31:50;18.90;99.90
44767;DHT22;30487;48.716;9.272;2023-08-01T07:34:16;19.00;99.90
44767;DHT22;30487;48.716;9.272;2023-08-01T07:36:41;19.00;99.90
44767;DHT22;30487;48.716;9.272;2023-08-01T07:39:07;19.10;99.90
44767;DHT22;30487;48.716;9.272;2023-08-01T07:41:33;19.10;99.90
44767;DHT22;30487;48.716;9.272;2023-08-01T07:44:01;19.10;99.90
44767;DHT22;30487;48.716;9.272;2023-08-01T07:46:28;19.00;99.90
44767;DHT22;30487;48.716;9.272;2023-08-01T07:48:54;19.00;99.90
44767;DHT22;30487;48.716;9.272;2023-08-01T07:51:19;18.90;99.90
44767;DHT22;30487;48.716;9.272;2023-08-01T07:53:45;18.90;99.90
44767;DHT22;30487;48.716;9.272;2023-08-01T07:56:10;18.90;99.90
44767;DHT22;30487;48.716;9.272;2023-08-01T07:58:36;18.90;99.90
44767;DHT22;30487;48.716;9.272;2023-08-01T08:01:07;18.80;99.90
44767;DHT22;30487;48.716;9.272;2023-08-01T08:03:32;18.60;99.90
44767;DHT22;30487;48.716;9.272;2023-08-01T08:05:58;18.50;99.90
44767;DHT22;30487;48.716;9.272;2023-08-01T08:08:24;18.50;99.90
44767;DHT22;30487;48.716;9.272;2023-08-01T08:10:50;18.50;99.90
44767;DHT22;30487;48.716;9.272;2023-08-01T08:13:15;18.50;99.90
44767;DHT22;30487;48.716;9.272;2023-08-01T08:15:41;18.40;99.90
44767;DHT22;30487;48.716;9.272;2023-08-01T08:18:07;18.30;99.90
44767;DHT22;30487;48.716;9.272;2023-08-01T08:20:41;18.30;99.90
44767;DHT22;30487;48.716;9.272;2023-08-01T08:23:06;18.30;99.90
44767;DHT22;30487;48.716;9.272;2023-08-01T08:25:32;18.20;99.90
44767;DHT22;30487;48.716;9.272;2023-08-01T08:27:58;18.20;99.90
44767;DHT22;30487;48.716;9.272;2023-08-01T08:30:24;18.20;99.90
44767;DHT22;30487;48.716;9.272;2023-08-01T08:32:50;18.10;99.90
44767;DHT22;30487;48.716;9.272;2023-08-01T08:35:16;18.10;99.90
44767;DHT22;30487;48.716;9.272;2023-08-01T08:37:41;18.00;99.90
44767;DHT22;30487;48.716;9.272;2023-08-01T08:40:07;18.10;99.90
44767;DHT22;30487;48.716;9.272;2023-08-01T08:42:34;18.10;99.90
44767;DHT22;30487;48.716;9.272;2023-08-01T08:45:01;18.10;99.90
44767;DHT22;30487;48.716;9.272;2023-08-01T08:47:28;18.20;99.90
44767;DHT22;30487;48.716;9.272;2023-08-01T08:49:55;18.30;99.90
44767;DHT22;30487;48.716;9.272;2023-08-01T08:52:26;18.50;99.90
44767;DHT22;30487;48.716;9.272;2023-08-01T08:54:52;18.60;99.90
44767;DHT22;30487;48.716;9.272;2023-08-01T08:57:19;18.60;99.90
44767;DHT22;30487;48.716;9.272;2023-08-01T08:59:46;18.60;99.90
44767;DHT22;30487;48.716;9.272;2023-08-01T09:02:13;18.60;99.90
44767;DHT22;30487;48.716;9.272;2023-08-01T09:04:40;18.60;99.90
44767;DHT22;30487;48.716;9.272;2023-08-01T09:07:09;18.60;99.90
44767;DHT22;30487;48.716;9.272;2023-08-01T09:09:34;18.60;99.90
44767;DHT22;30487;48.716;9.272;2023-08-01T09:12:00;18.60;99.90
44767;DHT22;30487;48.716;9.272;2023-08-01T09:14:26;18.70;99.90
44767;DHT22;30487;48.716;9.272;2023-08-01T09:16:51;18.80;99.90
44767;DHT22;30487;48.716;9.272;2023-08-01T09:19:21;18.80;99.90
44767;DHT22;30487;48.716;9.272;2023-08-01T09:21:48;18.80;99.90
44767;DHT22;30487;48.716;9.272;2023-08-01T09:24:15;18.80;99.90
44767;DHT22;30487;48.716;9.272;2023-08-01T09:26:42;18.80;99.90
44767;DHT22;30487;48.716;9.272;2023-08-01T09:29:08;18.80;99.90
44767;DHT22;30487;48.716;9.272;2023-08-01T09:31:36;18.90;99.90
44767;DHT22;30487;48.716;9.272;2023-08-01T09:34:03;19.00;99.90
44767;DHT22;30487;48.716;9.272;2023-08-01T09:36:34;19.00;99.90
44767;DHT22;30487;48.716;9.272;2023-08-01T09:39:02;19.00;99.90
44767;DHT22;30487;48.716;9.272;2023-08-01T09:41:31;19.00;99.90
44767;DHT22;30487;48.716;9.272;2023-08-01T09:43:57;19.10;99.90
44767;DHT22;30487;48.716;9.272;2023-08-01T09:46:24;19.10;99.90
44767;DHT22;30487;48.716;9.272;2023-08-01T09:48:49;19.20;99.90
44767;DHT22;30487;48.716;9.272;2023-08-01T09:51:17;19.30;99.90
44767;DHT22;30487;48.716;9.272;2023-08-01T09:54:00;19.30;99.90
44767;DHT22;30487;48.716;9.272;2023-08-01T09:56:27;19.40;99.90
44767;DHT22;30487;48.716;9.272;2023-08-01T09:58:54;19.40;99.90
44767;DHT22;30487;48.716;9.272;2023-08-01T10:01:22;19.30;99.90
44767;DHT22;30487;48.716;9.272;2023-08-01T10:03:49;19.30;99.90
44767;DHT22;30487;48.716;9.272;2023-08-01T10:06:28;19.30;99.90
44767;DHT22;30487;48.716;9.272;2023-08-01T10:08:54;19.40;99.90
44767;DHT22;30487;48.716;9.272;2023-08-01T10:11:21;19.50;99.90
44767;DHT22;30487;48.716;9.272;2023-08-01T10:13:47;19.60;99.90
44767;DHT22;30487;48.716;9.272;2023-08-01T10:16:13;19.60;99.90
44767;DHT22;30487;48.716;9.272;2023-08-01T10:18:39;19.60;99.90
44767;DHT22;30487;48.716;9.272;2023-08-01T10:21:07;19.60;99.90
44767;DHT22;30487;48.716;9.272;2023-08-01T10:23:33;19.70;99.90
44767;DHT22;30487;48.716;9.272;2023-08-01T10:26:00;19.70;99.90
44767;DHT22;30487;48.716;9.272;2023-08-01T10:28:33;19.70;99.90
44767;DHT22;30487;48.716;9.272;2023-08-01T10:31:13;19.80;99.90
44767;DHT22;30487;48.716;9.272;2023-08-01T10:33:40;19.90;99.90
44767;DHT22;30487;48.716;9.272;2023-08-01T10:36:20;19.90;99.90
44767;DHT22;30487;48.716;9.272;2023-08-01T10:38:56;20.00;99.90
44767;DHT22;30487;48.716;9.272;2023-08-01T10:41:27;20.20;99.90
44767;DHT22;30487;48.716;9.272;2023-08-01T10:46:54;20.30;99.90
44767;DHT22;30487;48.716;9.272;2023-08-01T10:49:31;20.40;99.90
44767;DHT22;30487;48.716;9.272;2023-08-01T10:51:57;20.40;99.90
44767;DHT22;30487;48.716;9.272;2023-08-01T10:54:24;20.60;99.90
44767;DHT22;30487;48.716;9.272;2023-08-01T10:56:51;20.80;99.90
44767;DHT22;30487;48.716;9.272;2023-08-01T10:59:17;20.90;99.90
44767;DHT22;30487;48.716;9.272;2023-08-01T11:01:48;21.20;99.90
44767;DHT22;30487;48.716;9.272;2023-08-01T11:04:18;21.70;99.90
44767;DHT22;30487;48.716;9.272;2023-08-01T11:06:51;22.20;99.90
44767;DHT22;30487;48.716;9.272;2023-08-01T11:09:19;22.40;99.90
44767;DHT22;30487;48.716;9.272;2023-08-01T11:11:45;22.40;99.90
44767;DHT22;30487;48.716;9.272;2023-08-01T11:14:12;22.40;99.90
44767;DHT22;30487;48.716;9.272;2023-08-01T11:16:39;22.30;99.90
44767;DHT22;30487;48.716;9.272;2023-08-01T11:19:05;22.00;99.90
44767;DHT22;30487;48.716;9.272;2023-08-01T11:21:30;21.70;99.90
44767;DHT22;30487;48.716;9.272;2023-08-01T11:23:56;21.70;99.90
44767;DHT22;30487;48.716;9.272;2023-08-01T11:26:22;22.20;99.90
44767;DHT22;30487;48.716;9.272;2023-08-01T11:28:48;22.50;99.90
44767;DHT22;30487;48.716;9.272;2023-08-01T11:31:14;22.90;99.90
44767;DHT22;30487;48.716;9.272;2023-08-01T11:33:39;23.20;99.90
44767;DHT22;30487;48.716;9.272;2023-08-01T11:36:05;23.50;99.90
44767;DHT22;30487;48.716;9.272;2023-08-01T11:38:33;23.70;99.90
44767;DHT22;30487;48.716;9.272;2023-08-01T11:41:00;23.90;99.90
44767;DHT22;30487;48.716;9.272;2023-08-01T11:43:26;23.90;99.90
44767;DHT22;30487;48.716;9.272;2023-08-01T11:45:53;24.10;99.90
44767;DHT22;30487;48.716;9.272;2023-08-01T11:48:21;24.30;99.90
44767;DHT22;30487;48.716;9.272;2023-08-01T11:50:47;24.40;99.90
44767;DHT22;30487;48.716;9.272;2023-08-01T11:53:21;24.50;98.60
44767;DHT22;30487;48.716;9.272;2023-08-01T11:55:48;24.70;99.00
44767;DHT22;30487;48.716;9.272;2023-08-01T11:58:14;25.00;97.50
44767;DHT22;30487;48.716;9.272;2023-08-01T12:00:40;25.10;96.30
44767;DHT22;30487;48.716;9.272;2023-08-01T12:03:08;25.10;95.20
44767;DHT22;30487;48.716;9.272;2023-08-01T12:05:41;25.20;94.50
44767;DHT22;30487;48.716;9.272;2023-08-01T12:08:12;25.20;94.00
44767;DHT22;30487;48.716;9.272;2023-08-01T12:10:41;25.40;93.10
44767;DHT22;30487;48.716;9.272;2023-08-01T12:13:19;25.60;92.90
44767;DHT22;30487;48.716;9.272;2023-08-01T12:15:47;25.70;93.10
44767;DHT22;30487;48.716;9.272;2023-08-01T12:18:26;26.00;93.30
44767;DHT22;30487;48.716;9.272;2023-08-01T12:20:52;26.00;92.30
44767;DHT22;30487;48.716;9.272;2023-08-01T12:23:18;26.10;91.40
44767;DHT22;30487;48.716;9.272;2023-08-01T12:25:44;26.00;91.40
44767;DHT22;30487;48.716;9.272;2023-08-01T12:28:11;25.90;91.00
44767;DHT22;30487;48.716;9.272;2023-08-01T12:30:39;25.60;90.20
44767;DHT22;30487;48.716;9.272;2023-08-01T12:33:06;25.20;88.90
44767;DHT22;30487;48.716;9.272;2023-08-01T12:35:32;24.90;90.30
44767;DHT22;30487;48.716;9.272;2023-08-01T12:37:58;24.70;91.10
44767;DHT22;30487;48.716;9.272;2023-08-01T12:40:23;24.60;91.90
44767;DHT22;30487;48.716;9.272;2023-08-01T12:42:49;24.60;92.20
44767;DHT22;30487;48.716;9.272;2023-08-01T12:45:15;24.60;92.20
44767;DHT22;30487;48.716;9.272;2023-08-01T12:47:40;24.90;91.90
44767;DHT22;30487;48.716;9.272;2023-08-01T12:50:06;25.30;91.20
44767;DHT22;30487;48.716;9.272;2023-08-01T12:52:32;25.70;89.70
44767;DHT22;30487;48.716;9.272;2023-08-01T12:54:57;25.80;88.30
44767;DHT22;30487;48.716;9.272;2023-08-01T12:57:23;25.70;87.80
44767;DHT22;30487;48.716;9.272;2023-08-01T12:59:49;25.70;89.00
44767;DHT22;30487;48.716;9.272;2023-08-01T13:02:14;25.70;90.00
44767;DHT22;30487;48.716;9.272;2023-08-01T13:04:40;26.00;89.10
44767;DHT22;30487;48.716;9.272;2023-08-01T13:07:06;26.30;90.00
44767;DHT22;30487;48.716;9.272;2023-08-01T13:09:31;26.40;90.20
44767;DHT22;30487;48.716;9.272;2023-08-01T13:11:57;26.70;89.90
44767;DHT22;30487;48.716;9.272;2023-08-01T13:14:24;26.90;86.60
44767;DHT22;30487;48.716;9.272;2023-08-01T13:16:50;26.60;85.50
44767;DHT22;30487;48.716;9.272;2023-08-01T13:19:15;27.00;84.70
44767;DHT22;30487;48.716;9.272;2023-08-01T13:21:41;27.10;84.50
44767;DHT22;30487;48.716;9.272;2023-08-01T13:24:06;27.40;83.20
44767;DHT22;30487;48.716;9.272;2023-08-01T13:26:32;27.60;80.40
44767;DHT22;30487;48.716;9.272;2023-08-01T13:28:58;27.70;80.00
44767;DHT22;30487;48.716;9.272;2023-08-01T13:31:24;27.70;79.90
44767;DHT22;30487;48.716;9.272;2023-08-01T13:33:50;27.80;79.20
44767;DHT22;30487;48.716;9.272;2023-08-01T13:36:17;28.00;79.70
44767;DHT22;30487;48.716;9.272;2023-08-01T13:38:43;28.50;78.30
44767;DHT22;30487;48.716;9.272;2023-08-01T13:41:08;29.10;77.50
44767;DHT22;30487;48.716;9.272;2023-08-01T13:43:34;29.10;74.80
44767;DHT22;30487;48.716;9.272;2023-08-01T13:45:59;29.20;73.80
44767;DHT22;30487;48.716;9.272;2023-08-01T13:48:25;29.50;74.30
44767;DHT22;30487;48.716;9.272;2023-08-01T13:50:51;28.50;74.50
44767;DHT22;30487;48.716;9.272;2023-08-01T13:53:18;28.30;76.70
44767;DHT22;30487;48.716;9.272;2023-08-01T13:55:43;28.50;75.60
44767;DHT22;30487;48.716;9.272;2023-08-01T13:58:09;29.00;74.80
44767;DHT22;30487;48.716;9.272;2023-08-01T14:00:34;29.50;74.30
44767;DHT22;30487;48.716;9.272;2023-08-01T14:03:00;29.60;73.80
44767;DHT22;30487;48.716;9.272;2023-08-01T14:05:26;29.80;73.80
44767;DHT22;30487;48.716;9.272;2023-08-01T14:07:52;30.10;73.20
44767;DHT22;30487;48.716;9.272;2023-08-01T14:10:18;29.90;72.60
44767;DHT22;30487;48.716;9.272;2023-08-01T14:12:44;29.30;72.20
44767;DHT22;30487;48.716;9.272;2023-08-01T14:15:09;28.70;74.50
44767;DHT22;30487;48.716;9.272;2023-08-01T14:17:36;28.20;73.70
44767;DHT22;30487;48.716;9.272;2023-08-01T14:20:02;27.80;72.80
44767;DHT22;30487;48.716;9.272;2023-08-01T14:22:29;27.50;74.10
44767;DHT22;30487;48.716;9.272;2023-08-01T14:24:55;27.10;73.10
44767;DHT22;30487;48.716;9.272;2023-08-01T14:27:21;26.90;73.30
44767;DHT22;30487;48.716;9.272;2023-08-01T14:29:47;26.60;73.40
44767;DHT22;30487;48.716;9.272;2023-08-01T14:32:12;26.30;72.00
44767;DHT22;30487;48.716;9.272;2023-08-01T14:34:38;26.00;73.10
44767;DHT22;30487;48.716;9.272;2023-08-01T14:37:04;25.80;74.10
44767;DHT22;30487;48.716;9.272;2023-08-01T14:39:29;25.70;73.30
44767;DHT22;30487;48.716;9.272;2023-08-01T14:41:55;25.60;75.10
44767;DHT22;30487;48.716;9.272;2023-08-01T14:44:20;25.60;76.30
44767;DHT22;30487;48.716;9.272;2023-08-01T14:46:46;25.40;76.30
44767;DHT22;30487;48.716;9.272;2023-08-01T14:49:12;25.30;76.30
44767;DHT22;30487;48.716;9.272;2023-08-01T14:51:38;25.10;73.80
44767;DHT22;30487;48.716;9.272;2023-08-01T14:54:03;24.90;74.50
44767;DHT22;30487;48.716;9.272;2023-08-01T14:56:29;24.70;75.10
44767;DHT22;30487;48.716;9.272;2023-08-01T14:58:55;24.60;75.60
44767;DHT22;30487;48.716;9.272;2023-08-01T15:01:21;24.50;74.80
44767;DHT22;30487;48.716;9.272;2023-08-01T15:03:46;24.40;74.70
44767;DHT22;30487;48.716;9.272;2023-08-01T15:06:12;24.40;74.70
44767;DHT22;30487;48.716;9.272;2023-08-01T15:08:41;24.50;74.60
44767;DHT22;30487;48.716;9.272;2023-08-01T15:11:07;24.60;75.30
44767;DHT22;30487;48.716;9.272;2023-08-01T15:13:34;24.50;75.40
44767;DHT22;30487;48.716;9.272;2023-08-01T15:16:00;24.50;74.30
44767;DHT22;30487;48.716;9.272;2023-08-01T15:18:27;24.40;76.00
44767;DHT22;30487;48.716;9.272;2023-08-01T15:20:56;24.30;76.80
44767;DHT22;30487;48.716;9.272;2023-08-01T15:23:21;24.30;76.60
44767;DHT22;30487;48.716;9.272;2023-08-01T15:25:57;24.30;76.90
44767;DHT22;30487;48.716;9.272;2023-08-01T15:28:24;24.20;77.50